createdAt,value
2023-03-29T00:02:42.197Z,39.30
2023-03-29T00:08:04.581Z,38.80
2023-03-29T00:13:27.244Z,32.80
2023-03-29T00:18:49.327Z,33.70
2023-03-29T00:24:11.167Z,45.40
2023-03-29T00:29:33.084Z,38.40
2023-03-29T00:34:57.041Z,32.90
2023-03-29T00:40:19.453Z,41.70
2023-03-29T00:45:41.180Z,33.90
2023-03-29T00:51:09.901Z,54.00
2023-03-29T01:02:05.427Z,30.20
2023-03-29T01:07:35.484Z,47.60
2023-03-29T01:13:02.620Z,33.80
2023-03-29T01:18:24.559Z,33.40
2023-03-29T01:24:07.575Z,27.20
2023-03-29T01:29:47.350Z,37.30
2023-03-29T01:35:19.834Z,34.90
2023-03-29T01:40:42.654Z,29.30
2023-03-29T01:46:05.939Z,43.80
2023-03-29T01:52:01.693Z,35.50
2023-03-29T01:57:25.253Z,52.10
2023-03-29T02:02:47.936Z,41.60
2023-03-29T02:08:12.561Z,46.30
2023-03-29T02:13:35.588Z,40.10
2023-03-29T02:18:58.119Z,55.40
2023-03-29T02:24:22.186Z,40.80
2023-03-29T02:29:46.996Z,38.50
2023-03-29T02:35:20.869Z,44.40
2023-03-29T02:40:43.006Z,45.00
2023-03-29T02:46:06.473Z,37.60
2023-03-29T02:51:32.140Z,34.30
2023-03-29T02:56:59.969Z,42.90
2023-03-29T03:02:22.070Z,54.60
2023-03-29T03:07:44.091Z,36.40
2023-03-29T03:13:06.126Z,31.50
2023-03-29T03:18:30.687Z,35.60
2023-03-29T03:23:52.231Z,36.20
2023-03-29T03:29:15.700Z,44.90
2023-03-29T03:34:59.083Z,46.40
2023-03-29T03:40:21.243Z,42.80
2023-03-29T03:45:44.008Z,42.30
2023-03-29T03:51:12.320Z,41.80
2023-03-29T03:56:34.972Z,48.50
2023-03-29T04:02:05.265Z,38.40
2023-03-29T04:07:27.751Z,46.60
2023-03-29T04:13:17.257Z,46.70
2023-03-29T04:18:59.019Z,56.60
2023-03-29T04:24:23.507Z,68.40
2023-03-29T04:30:02.313Z,69.80
2023-03-29T04:35:47.164Z,64.30
2023-03-29T04:41:10.152Z,58.90
2023-03-29T04:46:40.333Z,62.00
2023-03-29T04:52:34.457Z,62.80
2023-03-29T04:57:57.283Z,59.90
2023-03-29T05:03:39.684Z,54.70
2023-03-29T05:09:11.149Z,57.60
2023-03-29T05:14:41.503Z,53.80
2023-03-29T05:20:11.376Z,59.30
2023-03-29T05:25:33.817Z,62.90
2023-03-29T05:31:01.091Z,60.90
2023-03-29T05:36:24.985Z,42.90
2023-03-29T05:41:47.004Z,40.80
2023-03-29T05:47:41.789Z,48.00
2023-03-29T05:53:03.978Z,51.20
2023-03-29T05:58:26.865Z,50.80
2023-03-29T06:03:49.462Z,40.00
2023-03-29T06:09:12.983Z,47.90
2023-03-29T06:14:41.531Z,54.60
2023-03-29T06:20:29.356Z,57.20
2023-03-29T06:25:55.550Z,59.10
2023-03-29T06:31:17.797Z,55.00
2023-03-29T06:36:40.257Z,48.00
2023-03-29T06:42:10.050Z,50.30
2023-03-29T06:47:58.877Z,46.20
2023-03-29T06:53:22.127Z,37.40
2023-03-29T06:58:50.039Z,40.60
2023-03-29T07:04:27.244Z,35.40
2023-03-29T07:10:13.121Z,36.00
2023-03-29T07:15:53.937Z,35.00
2023-03-29T07:21:36.683Z,28.60
2023-03-29T07:27:04.453Z,24.60
2023-03-29T07:32:31.243Z,26.80
2023-03-29T07:38:08.400Z,21.10
2023-03-29T07:43:31.236Z,28.60
2023-03-29T07:48:53.393Z,19.30
2023-03-29T07:54:15.093Z,15.70
2023-03-29T07:59:48.752Z,14.00
2023-03-29T08:05:23.264Z,17.00
2023-03-29T08:10:53.585Z,15.90
2023-03-29T08:16:38.445Z,17.70
2023-03-29T08:22:03.974Z,17.20
2023-03-29T08:27:40.340Z,17.10
2023-03-29T08:33:02.968Z,15.10
2023-03-29T08:38:25.284Z,15.80
2023-03-29T08:43:59.568Z,16.30
2023-03-29T08:49:38.252Z,14.30
2023-03-29T08:55:03.065Z,10.90
2023-03-29T09:00:51.315Z,10.10
2023-03-29T09:06:14.543Z,8.80
2023-03-29T09:11:56.737Z,9.50
2023-03-29T09:17:25.075Z,7.00
2023-03-29T09:23:22.541Z,10.80
2023-03-29T09:29:37.387Z,9.20
2023-03-29T09:35:08.527Z,12.30
2023-03-29T09:40:38.033Z,8.10
2023-03-29T09:46:16.195Z,7.80
2023-03-29T09:51:38.997Z,7.50
2023-03-29T09:57:01.247Z,7.80
2023-03-29T10:02:24.626Z,8.40
2023-03-29T10:07:54.455Z,17.80
2023-03-29T10:13:30.656Z,18.50
2023-03-29T10:18:54.834Z,9.10
2023-03-29T10:24:25.598Z,6.90
2023-03-29T10:29:47.636Z,5.90
2023-03-29T10:35:17.996Z,10.30
2023-03-29T10:40:45.336Z,5.40
2023-03-29T10:46:13.485Z,4.20
2023-03-29T10:51:36.223Z,10.10
2023-03-29T10:56:59.469Z,6.70
2023-03-29T11:02:42.001Z,4.60
2023-03-29T11:08:42.515Z,5.80
2023-03-29T11:14:28.252Z,7.60
2023-03-29T11:20:13.137Z,5.50
2023-03-29T11:25:48.410Z,6.70
2023-03-29T11:31:16.988Z,5.60
2023-03-29T11:36:53.951Z,7.40
2023-03-29T11:42:25.185Z,12.00
2023-03-29T11:47:47.592Z,9.80
2023-03-29T11:53:15.139Z,9.70
2023-03-29T11:58:39.830Z,6.70
2023-03-29T12:04:10.806Z,10.30
2023-03-29T12:09:41.581Z,20.60
2023-03-29T12:15:13.918Z,10.70
2023-03-29T12:20:40.033Z,8.40
2023-03-29T12:26:13.932Z,16.70
2023-03-29T12:32:10.192Z,6.30
2023-03-29T12:38:02.723Z,6.20
2023-03-29T12:43:53.311Z,8.90
2023-03-29T12:49:34.656Z,7.10
2023-03-29T12:54:59.327Z,22.00
2023-03-29T13:00:26.552Z,9.40
2023-03-29T13:06:02.832Z,8.80
2023-03-29T13:11:43.008Z,8.90
2023-03-29T13:17:18.493Z,11.60
2023-03-29T13:22:49.946Z,10.90
2023-03-29T13:28:21.024Z,10.20
2023-03-29T13:33:52.701Z,7.20
2023-03-29T13:39:22.722Z,6.70
2023-03-29T13:44:46.330Z,13.30
2023-03-29T13:50:16.890Z,13.30
2023-03-29T13:55:46.667Z,19.00
2023-03-29T14:01:28.411Z,17.10
2023-03-29T14:06:53.291Z,14.00
2023-03-29T14:12:15.861Z,5.40
2023-03-29T14:17:39.439Z,10.80
2023-03-29T14:23:01.229Z,12.50
2023-03-29T14:28:24.180Z,13.60
2023-03-29T14:33:46.173Z,10.40
2023-03-29T14:39:19.348Z,12.60
2023-03-29T14:44:40.873Z,14.00
2023-03-29T14:50:04.032Z,10.70
2023-03-29T14:55:27.494Z,9.90
2023-03-29T15:00:51.076Z,11.20
2023-03-29T15:06:13.405Z,16.60
2023-03-29T15:11:36.011Z,20.10
2023-03-29T15:17:03.303Z,10.80
2023-03-29T15:22:31.900Z,15.80
2023-03-29T15:27:57.549Z,15.40
2023-03-29T15:33:23.101Z,9.30
2023-03-29T15:38:49.474Z,9.80
2023-03-29T15:44:13.117Z,14.00
2023-03-29T15:49:34.732Z,14.90
2023-03-29T15:54:56.762Z,8.80
2023-03-29T16:00:19.995Z,20.80
2023-03-29T16:05:43.231Z,13.90
2023-03-29T16:11:06.951Z,23.10
2023-03-29T16:16:29.330Z,16.80
2023-03-29T16:21:51.623Z,24.30
2023-03-29T16:27:13.754Z,26.70
2023-03-29T16:32:36.038Z,35.80
2023-03-29T16:37:58.318Z,41.80
2023-03-29T16:43:20.142Z,23.10
2023-03-29T16:48:42.375Z,19.10
2023-03-29T16:54:04.423Z,21.90
2023-03-29T16:59:27.120Z,18.70
2023-03-29T17:04:49.263Z,24.40
2023-03-29T17:10:12.602Z,21.00
2023-03-29T17:15:36.706Z,31.60
2023-03-29T17:21:01.773Z,29.50
2023-03-29T17:26:23.704Z,27.70
2023-03-29T17:31:48.675Z,31.00
2023-03-29T17:37:10.879Z,29.00
2023-03-29T17:42:32.908Z,28.40
2023-03-29T17:47:55.873Z,26.00
2023-03-29T17:53:17.564Z,28.20
2023-03-29T17:58:42.727Z,28.00
2023-03-29T18:04:05.243Z,27.90
2023-03-29T18:09:30.587Z,36.80
2023-03-29T18:14:52.613Z,64.40
2023-03-29T18:20:14.636Z,38.70
2023-03-29T18:25:36.773Z,36.20
2023-03-29T18:30:58.687Z,39.40
2023-03-29T18:36:20.910Z,44.80
2023-03-29T18:41:43.117Z,48.00
2023-03-29T18:47:05.682Z,57.60
2023-03-29T18:52:27.876Z,48.80
2023-03-29T18:57:54.197Z,65.80
2023-03-29T19:03:16.028Z,38.60
2023-03-29T19:08:39.850Z,28.30
2023-03-29T19:14:02.472Z,41.80
2023-03-29T19:19:26.406Z,46.50
2023-03-29T19:24:48.139Z,38.60
2023-03-29T19:30:10.384Z,28.40
2023-03-29T19:35:32.404Z,30.90
2023-03-29T19:40:54.312Z,33.60
2023-03-29T19:46:16.057Z,31.40
2023-03-29T19:51:38.181Z,34.50
2023-03-29T19:57:00.170Z,36.00
2023-03-29T20:02:22.239Z,30.80
2023-03-29T20:07:44.765Z,32.50
2023-03-29T20:13:06.845Z,33.50
2023-03-29T20:18:30.936Z,27.90
2023-03-29T20:23:52.561Z,23.90
2023-03-29T20:29:15.601Z,19.20
2023-03-29T20:34:37.328Z,21.40
2023-03-29T20:40:01.063Z,25.70
2023-03-29T20:45:23.492Z,33.30
2023-03-29T20:50:47.429Z,45.80
2023-03-29T20:56:09.543Z,30.00
2023-03-29T21:01:35.074Z,21.20
2023-03-29T21:06:57.336Z,23.10
2023-03-29T21:12:20.342Z,24.00
2023-03-29T21:17:42.346Z,15.90
2023-03-29T21:23:04.628Z,19.30
2023-03-29T21:28:26.627Z,23.10
2023-03-29T21:33:48.188Z,20.20
2023-03-29T21:39:09.713Z,17.50
2023-03-29T21:44:33.789Z,24.00
2023-03-29T21:49:56.174Z,16.40
2023-03-29T21:55:18.194Z,21.80
2023-03-29T22:00:40.092Z,23.40
2023-03-29T22:06:04.484Z,19.50
2023-03-29T22:11:28.699Z,21.40
2023-03-29T22:16:50.292Z,15.80
2023-03-29T22:22:14.308Z,20.80
2023-03-29T22:27:36.907Z,17.00
2023-03-29T22:32:58.620Z,21.20
2023-03-29T22:38:20.847Z,18.50
2023-03-29T22:43:42.603Z,19.20
2023-03-29T22:49:04.412Z,18.40
2023-03-29T22:54:26.155Z,18.60
2023-03-29T22:59:47.987Z,61.60
2023-03-29T23:05:10.022Z,25.50
2023-03-29T23:10:31.846Z,26.50
2023-03-29T23:15:57.409Z,22.40
2023-03-29T23:21:19.013Z,24.20
2023-03-29T23:26:40.839Z,18.90
2023-03-29T23:32:02.261Z,16.10
2023-03-29T23:37:25.100Z,13.90
2023-03-29T23:42:48.207Z,11.90
2023-03-29T23:48:10.061Z,14.30
2023-03-29T23:53:32.298Z,10.80
2023-03-29T23:58:54.426Z,9.90
